createdAt,value
2023-03-15T00:01:12.763Z,59
2023-03-15T00:02:52.539Z,60
2023-03-15T00:04:32.314Z,60
2023-03-15T00:06:12.076Z,60
2023-03-15T00:07:51.928Z,60
2023-03-15T00:09:31.585Z,60
2023-03-15T00:11:11.346Z,59
2023-03-15T00:12:51.103Z,59
2023-03-15T00:14:30.875Z,59
2023-03-15T00:16:10.639Z,60
2023-03-15T00:17:50.536Z,60
2023-03-15T00:19:30.244Z,59
2023-03-15T00:21:09.994Z,60
2023-03-15T00:22:49.759Z,60
2023-03-15T00:24:29.451Z,59
2023-03-15T00:26:09.219Z,59
2023-03-15T00:27:49.107Z,59
2023-03-15T00:29:28.902Z,59
2023-03-15T00:31:08.532Z,59
2023-03-15T00:32:48.265Z,59
2023-03-15T00:34:28.035Z,59
2023-03-15T00:36:07.804Z,59
2023-03-15T00:37:47.606Z,59
2023-03-15T00:39:27.336Z,59
2023-03-15T00:41:07.107Z,59
2023-03-15T00:42:46.851Z,59
2023-03-15T00:44:26.732Z,59
2023-03-15T00:46:06.387Z,59
2023-03-15T00:47:46.254Z,59
2023-03-15T00:49:26.002Z,59
2023-03-15T00:51:05.690Z,59
2023-03-15T00:52:45.509Z,59
2023-03-15T00:54:25.231Z,59
2023-03-15T00:56:04.971Z,59
2023-03-15T00:57:44.771Z,59
2023-03-15T00:59:24.491Z,59
2023-03-15T01:01:04.240Z,59
2023-03-15T01:02:44.042Z,59
2023-03-15T01:04:23.797Z,59
2023-03-15T01:06:03.549Z,59
2023-03-15T01:07:43.467Z,59
2023-03-15T01:09:23.078Z,59
2023-03-15T01:11:02.840Z,59
2023-03-15T01:12:42.616Z,59
2023-03-15T01:14:22.434Z,59
2023-03-15T01:16:02.176Z,59
2023-03-15T01:17:41.991Z,59
2023-03-15T01:19:21.668Z,59
2023-03-15T01:21:01.490Z,59
2023-03-15T01:22:41.209Z,59
2023-03-15T01:24:20.983Z,59
2023-03-15T01:26:00.728Z,59
2023-03-15T01:27:40.561Z,59
2023-03-15T01:29:20.306Z,59
2023-03-15T01:31:00.017Z,59
2023-03-15T01:32:39.772Z,59
2023-03-15T01:34:19.647Z,59
2023-03-15T01:35:59.336Z,59
2023-03-15T01:37:39.098Z,59
2023-03-15T01:39:18.832Z,59
2023-03-15T01:40:58.692Z,59
2023-03-15T01:42:38.351Z,58
2023-03-15T01:44:18.114Z,59
2023-03-15T01:45:57.924Z,59
2023-03-15T01:47:37.672Z,59
2023-03-15T01:49:17.407Z,59
2023-03-15T01:50:57.211Z,59
2023-03-15T01:52:37.020Z,59
2023-03-15T01:54:16.697Z,58
2023-03-15T01:55:56.446Z,59
2023-03-15T01:57:36.232Z,58
2023-03-15T01:59:16.039Z,58
2023-03-15T02:00:55.758Z,58
2023-03-15T02:02:35.518Z,59
2023-03-15T02:04:15.301Z,58
2023-03-15T02:05:55.063Z,58
2023-03-15T02:07:34.825Z,58
2023-03-15T02:09:14.582Z,58
2023-03-15T02:10:54.327Z,58
2023-03-15T02:12:34.105Z,58
2023-03-15T02:14:13.868Z,58
2023-03-15T02:15:53.643Z,58
2023-03-15T02:17:33.408Z,58
2023-03-15T02:19:13.152Z,58
2023-03-15T02:20:52.982Z,58
2023-03-15T02:22:32.685Z,58
2023-03-15T02:24:12.438Z,58
2023-03-15T02:25:52.205Z,58
2023-03-15T02:27:32.009Z,58
2023-03-15T02:29:11.767Z,58
2023-03-15T02:30:51.522Z,58
2023-03-15T02:32:31.290Z,58
2023-03-15T02:34:11.076Z,58
2023-03-15T02:35:50.804Z,58
2023-03-15T02:37:30.564Z,58
2023-03-15T02:39:10.312Z,58
2023-03-15T02:40:50.086Z,58
2023-03-15T02:42:29.851Z,58
2023-03-15T02:44:09.640Z,57
2023-03-15T02:45:49.367Z,58
2023-03-15T02:47:29.141Z,57
2023-03-15T02:49:09.019Z,58
2023-03-15T02:50:48.665Z,58
2023-03-15T02:52:28.431Z,57
2023-03-15T02:54:08.209Z,57
2023-03-15T02:55:48.066Z,57
2023-03-15T02:57:27.732Z,57
2023-03-15T02:59:07.499Z,58
2023-03-15T03:00:47.349Z,58
2023-03-15T03:02:27.020Z,58
2023-03-15T03:04:06.783Z,58
2023-03-15T03:05:46.547Z,57
2023-03-15T03:07:26.476Z,57
2023-03-15T03:09:06.096Z,57
2023-03-15T03:10:45.825Z,57
2023-03-15T03:12:25.638Z,57
2023-03-15T03:14:05.358Z,57
2023-03-15T03:15:45.128Z,58
2023-03-15T03:17:24.906Z,58
2023-03-15T03:19:04.645Z,57
2023-03-15T03:20:44.425Z,57
2023-03-15T03:22:24.182Z,57
2023-03-15T03:24:03.939Z,57
2023-03-15T03:25:43.710Z,57
2023-03-15T03:27:23.472Z,57
2023-03-15T03:29:03.320Z,57
2023-03-15T03:30:43.027Z,57
2023-03-15T03:32:22.773Z,57
2023-03-15T03:34:02.632Z,57
2023-03-15T03:35:42.309Z,57
2023-03-15T03:37:22.071Z,57
2023-03-15T03:39:01.866Z,57
2023-03-15T03:40:41.606Z,57
2023-03-15T03:42:21.333Z,57
2023-03-15T03:44:01.178Z,57
2023-03-15T03:45:40.867Z,57
2023-03-15T03:47:20.638Z,57
2023-03-15T03:49:00.392Z,57
2023-03-15T03:50:40.162Z,57
2023-03-15T03:52:19.916Z,57
2023-03-15T03:53:59.685Z,57
2023-03-15T03:55:39.445Z,56
2023-03-15T03:57:19.227Z,57
2023-03-15T03:58:59.021Z,57
2023-03-15T04:00:38.748Z,57
2023-03-15T04:02:18.505Z,57
2023-03-15T04:03:58.284Z,57
2023-03-15T04:05:38.047Z,57
2023-03-15T04:07:17.821Z,57
2023-03-15T04:08:57.602Z,57
2023-03-15T04:10:37.404Z,57
2023-03-15T04:12:17.081Z,57
2023-03-15T04:13:56.916Z,57
2023-03-15T04:15:36.627Z,57
2023-03-15T04:17:16.368Z,57
2023-03-15T04:18:56.156Z,57
2023-03-15T04:20:35.915Z,57
2023-03-15T04:22:15.730Z,57
2023-03-15T04:23:55.436Z,57
2023-03-15T04:25:35.207Z,56
2023-03-15T04:27:14.977Z,56
2023-03-15T04:28:54.733Z,57
2023-03-15T04:30:34.503Z,57
2023-03-15T04:32:14.250Z,57
2023-03-15T04:33:54.019Z,56
2023-03-15T04:35:33.781Z,57
2023-03-15T04:37:13.551Z,57
2023-03-15T04:38:53.306Z,57
2023-03-15T04:40:33.077Z,57
2023-03-15T04:42:12.854Z,57
2023-03-15T04:43:52.624Z,57
2023-03-15T04:45:32.402Z,57
2023-03-15T04:47:12.139Z,57
2023-03-15T04:48:51.954Z,57
2023-03-15T04:50:31.732Z,57
2023-03-15T04:52:11.443Z,57
2023-03-15T04:53:51.218Z,57
2023-03-15T04:55:30.949Z,57
2023-03-15T04:57:10.756Z,57
2023-03-15T04:58:50.483Z,57
2023-03-15T05:00:30.249Z,57
2023-03-15T05:02:10.026Z,57
2023-03-15T05:03:49.781Z,57
2023-03-15T05:05:29.533Z,57
2023-03-15T05:07:09.323Z,57
2023-03-15T05:08:49.076Z,57
2023-03-15T05:10:28.859Z,57
2023-03-15T05:12:08.590Z,57
2023-03-15T05:13:48.375Z,57
2023-03-15T05:15:28.121Z,57
2023-03-15T05:17:07.879Z,57
2023-03-15T05:18:47.676Z,57
2023-03-15T05:20:27.411Z,57
2023-03-15T05:22:07.182Z,57
2023-03-15T05:23:46.970Z,57
2023-03-15T05:25:26.712Z,58
2023-03-15T05:27:06.482Z,58
2023-03-15T05:28:46.245Z,58
2023-03-15T05:30:26.075Z,58
2023-03-15T05:32:05.789Z,58
2023-03-15T05:33:45.536Z,58
2023-03-15T05:35:25.279Z,58
2023-03-15T05:37:05.068Z,59
2023-03-15T05:38:44.832Z,59
2023-03-15T05:40:24.624Z,59
2023-03-15T05:42:04.357Z,60
2023-03-15T05:43:44.125Z,61
2023-03-15T05:45:23.900Z,61
2023-03-15T05:47:03.751Z,63
2023-03-15T05:48:43.476Z,64
2023-03-15T05:50:23.211Z,66
2023-03-15T05:52:03.044Z,67
2023-03-15T05:53:42.823Z,68
2023-03-15T05:55:22.475Z,69
2023-03-15T05:57:02.212Z,69
2023-03-15T05:58:42.020Z,71
2023-03-15T06:00:21.894Z,72
2023-03-15T06:02:01.522Z,72
2023-03-15T06:03:41.283Z,72
2023-03-15T06:05:21.041Z,72
2023-03-15T06:07:00.804Z,73
2023-03-15T06:08:40.564Z,73
2023-03-15T06:10:20.348Z,74
2023-03-15T06:12:00.089Z,75
2023-03-15T06:13:39.851Z,75
2023-03-15T06:15:19.622Z,77
2023-03-15T06:16:59.418Z,79
2023-03-15T06:18:39.155Z,81
2023-03-15T06:20:18.918Z,85
2023-03-15T06:21:58.674Z,89
2023-03-15T06:23:38.458Z,92
2023-03-15T06:25:18.206Z,95
2023-03-15T06:26:58.000Z,96
2023-03-15T06:28:37.734Z,97
2023-03-15T06:30:17.508Z,100
2023-03-15T06:31:57.285Z,99
2023-03-15T06:33:37.044Z,97
2023-03-15T06:35:16.822Z,96
2023-03-15T06:36:56.561Z,95
2023-03-15T06:38:36.333Z,91
2023-03-15T06:40:16.111Z,91
2023-03-15T06:41:55.856Z,90
2023-03-15T06:43:35.656Z,89
2023-03-15T06:45:15.382Z,89
2023-03-15T06:46:55.167Z,90
2023-03-15T06:48:34.912Z,90
2023-03-15T06:50:14.689Z,89
2023-03-15T06:51:54.430Z,88
2023-03-15T06:53:34.208Z,88
2023-03-15T06:55:13.960Z,88
2023-03-15T06:56:53.743Z,89
2023-03-15T06:58:33.491Z,89
2023-03-15T07:00:13.354Z,90
2023-03-15T07:01:53.047Z,90
2023-03-15T07:03:32.849Z,91
2023-03-15T07:05:12.536Z,94
2023-03-15T07:06:52.411Z,98
2023-03-15T07:08:32.087Z,100
2023-03-15T07:10:11.834Z,100
2023-03-15T07:11:51.628Z,100
2023-03-15T07:13:31.369Z,100
2023-03-15T07:15:11.196Z,100
2023-03-15T07:16:50.926Z,100
2023-03-15T07:18:30.778Z,100
2023-03-15T07:20:10.507Z,100
2023-03-15T07:21:50.235Z,100
2023-03-15T07:23:29.998Z,100
2023-03-15T07:25:09.725Z,100
2023-03-15T07:26:49.488Z,100
2023-03-15T07:28:29.293Z,100
2023-03-15T07:30:09.023Z,100
2023-03-15T07:31:48.779Z,100
2023-03-15T07:33:28.544Z,100
2023-03-15T07:35:08.311Z,100
2023-03-15T07:36:48.144Z,100
2023-03-15T07:38:27.833Z,100
2023-03-15T07:40:07.597Z,100
2023-03-15T07:41:47.360Z,100
2023-03-15T07:43:27.132Z,100
2023-03-15T07:45:06.886Z,100
2023-03-15T07:46:46.701Z,100
2023-03-15T07:48:26.416Z,100
2023-03-15T07:50:06.185Z,100
2023-03-15T07:51:45.940Z,100
2023-03-15T07:53:25.695Z,100
2023-03-15T07:55:05.483Z,100
2023-03-15T07:56:45.232Z,100
2023-03-15T07:58:24.990Z,100
2023-03-15T08:00:04.776Z,100
2023-03-15T08:01:44.626Z,100
2023-03-15T08:03:24.405Z,100
2023-03-15T08:05:04.036Z,100
2023-03-15T08:06:43.817Z,100
2023-03-15T08:08:23.598Z,100
2023-03-15T08:10:03.348Z,100
2023-03-15T08:11:43.097Z,100
2023-03-15T08:13:22.890Z,100
2023-03-15T08:15:02.706Z,100
2023-03-15T08:16:42.443Z,100
2023-03-15T08:18:22.165Z,100
2023-03-15T08:20:01.907Z,100
2023-03-15T08:21:41.683Z,100
2023-03-15T08:23:21.444Z,100
2023-03-15T08:25:01.348Z,100
2023-03-15T08:26:41.000Z,100
2023-03-15T08:28:20.753Z,100
2023-03-15T08:30:00.537Z,100
2023-03-15T08:31:40.282Z,100
2023-03-15T08:33:20.151Z,100
2023-03-15T08:34:59.798Z,100
2023-03-15T08:36:39.569Z,100
2023-03-15T08:38:19.349Z,100
2023-03-15T08:39:59.098Z,100
2023-03-15T08:41:38.880Z,100
2023-03-15T08:43:18.624Z,100
2023-03-15T08:44:58.389Z,100
2023-03-15T08:46:38.161Z,100
2023-03-15T08:48:17.913Z,100
2023-03-15T08:49:57.706Z,100
2023-03-15T08:51:37.471Z,100
2023-03-15T08:53:17.219Z,100
2023-03-15T08:54:57.045Z,100
2023-03-15T08:56:36.715Z,100
2023-03-15T08:58:16.493Z,100
2023-03-15T08:59:56.337Z,100
2023-03-15T09:01:36.052Z,100
2023-03-15T09:03:15.765Z,100
2023-03-15T09:04:55.546Z,100
2023-03-15T09:06:35.333Z,100
2023-03-15T09:08:15.083Z,100
2023-03-15T09:09:54.835Z,100
2023-03-15T09:11:34.597Z,100
2023-03-15T09:13:14.356Z,97
2023-03-15T09:14:54.151Z,97
2023-03-15T09:16:33.939Z,97
2023-03-15T09:18:13.656Z,97
2023-03-15T09:19:53.486Z,97
2023-03-15T09:21:33.184Z,98
2023-03-15T09:23:12.985Z,98
2023-03-15T09:24:52.844Z,98
2023-03-15T09:26:32.494Z,99
2023-03-15T09:28:12.254Z,100
2023-03-15T09:29:52.002Z,100
2023-03-15T09:31:31.770Z,100
2023-03-15T09:33:11.535Z,98
2023-03-15T09:34:51.295Z,98
2023-03-15T09:36:31.060Z,98
2023-03-15T09:38:10.833Z,98
2023-03-15T09:39:50.592Z,98
2023-03-15T09:41:30.366Z,97
2023-03-15T09:43:10.165Z,98
2023-03-15T09:44:49.891Z,98
2023-03-15T09:46:29.659Z,99
2023-03-15T09:48:09.513Z,100
2023-03-15T09:49:49.241Z,100
2023-03-15T09:51:28.956Z,97
2023-03-15T09:53:08.710Z,100
2023-03-15T09:54:48.465Z,100
2023-03-15T09:56:28.250Z,100
2023-03-15T09:58:08.054Z,100
2023-03-15T09:59:47.768Z,97
2023-03-15T10:01:27.565Z,100
2023-03-15T10:03:07.289Z,98
2023-03-15T10:04:47.066Z,98
2023-03-15T10:06:26.947Z,98
2023-03-15T10:08:06.602Z,98
2023-03-15T10:09:46.381Z,100
2023-03-15T10:11:26.162Z,98
2023-03-15T10:13:05.946Z,99
2023-03-15T10:14:45.697Z,100
2023-03-15T10:16:25.417Z,100
2023-03-15T10:18:05.159Z,98
2023-03-15T10:19:44.915Z,99
2023-03-15T10:21:24.690Z,99
2023-03-15T10:23:04.502Z,98
2023-03-15T10:24:44.226Z,100
2023-03-15T10:26:24.082Z,97
2023-03-15T10:28:03.748Z,98
2023-03-15T10:29:43.518Z,97
2023-03-15T10:31:23.303Z,100
2023-03-15T10:33:03.030Z,100
2023-03-15T10:34:42.836Z,97
2023-03-15T10:36:22.559Z,100
2023-03-15T10:38:02.384Z,100
2023-03-15T10:39:42.085Z,98
2023-03-15T10:41:21.852Z,98
2023-03-15T10:43:01.614Z,100
2023-03-15T10:44:41.384Z,97
2023-03-15T10:46:21.176Z,99
2023-03-15T10:48:01.019Z,100
2023-03-15T10:49:40.695Z,100
2023-03-15T10:51:20.465Z,100
2023-03-15T10:53:00.205Z,100
2023-03-15T10:54:39.969Z,100
2023-03-15T10:56:19.732Z,99
2023-03-15T10:57:59.487Z,100
2023-03-15T10:59:39.343Z,98
2023-03-15T11:01:19.010Z,100
2023-03-15T11:02:58.785Z,98
2023-03-15T11:04:38.541Z,98
2023-03-15T11:06:18.341Z,98
2023-03-15T11:07:58.077Z,100
2023-03-15T11:09:37.832Z,100
2023-03-15T11:11:17.613Z,98
2023-03-15T11:12:57.359Z,98
2023-03-15T11:14:37.114Z,98
2023-03-15T11:16:16.889Z,99
2023-03-15T11:17:56.767Z,100
2023-03-15T11:19:36.525Z,97
2023-03-15T11:21:16.195Z,98
2023-03-15T11:22:55.963Z,99
2023-03-15T11:24:35.699Z,100
2023-03-15T11:26:15.595Z,98
2023-03-15T11:27:55.251Z,100
2023-03-15T11:29:35.049Z,100
2023-03-15T11:31:14.769Z,100
2023-03-15T11:32:54.522Z,98
2023-03-15T11:34:34.292Z,99
2023-03-15T11:37:53.822Z,100
2023-03-15T11:39:33.726Z,99
2023-03-15T11:41:13.396Z,96
2023-03-15T11:42:53.157Z,100
2023-03-15T11:44:32.884Z,97
2023-03-15T11:46:12.639Z,100
2023-03-15T11:47:52.418Z,98
2023-03-15T11:49:32.169Z,100
2023-03-15T11:51:11.930Z,98
2023-03-15T11:52:51.764Z,97
2023-03-15T11:54:31.466Z,99
2023-03-15T11:56:11.269Z,100
2023-03-15T11:57:50.983Z,98
2023-03-15T11:59:30.837Z,100
2023-03-15T12:01:10.507Z,100
2023-03-15T12:02:50.365Z,99
2023-03-15T12:04:30.100Z,97
2023-03-15T12:06:09.843Z,99
2023-03-15T12:07:49.580Z,99
2023-03-15T12:09:29.376Z,98
2023-03-15T12:11:09.103Z,100
2023-03-15T12:12:48.883Z,100
2023-03-15T12:14:28.708Z,100
2023-03-15T12:16:08.470Z,100
2023-03-15T12:17:48.223Z,97
2023-03-15T12:19:27.953Z,98
2023-03-15T12:21:07.751Z,100
2023-03-15T12:22:47.483Z,100
2023-03-15T12:24:27.215Z,98
2023-03-15T12:26:06.967Z,99
2023-03-15T12:27:46.802Z,98
2023-03-15T12:29:26.705Z,100
2023-03-15T12:31:06.387Z,100
2023-03-15T12:32:46.013Z,100
2023-03-15T12:34:25.792Z,100
2023-03-15T12:36:05.544Z,100
2023-03-15T12:37:45.383Z,100
2023-03-15T12:39:25.122Z,99
2023-03-15T12:41:04.906Z,100
2023-03-15T12:42:44.618Z,100
2023-03-15T12:44:24.413Z,100
2023-03-15T12:46:04.180Z,100
2023-03-15T12:47:43.907Z,98
2023-03-15T12:49:23.653Z,100
2023-03-15T12:51:03.587Z,98
2023-03-15T12:52:43.278Z,98
2023-03-15T12:54:23.001Z,97
2023-03-15T12:56:02.736Z,100
2023-03-15T12:57:42.474Z,100
2023-03-15T12:59:22.237Z,100
2023-03-15T13:01:02.002Z,98
2023-03-15T13:02:41.791Z,100
2023-03-15T13:04:21.525Z,100
2023-03-15T13:06:01.336Z,99
2023-03-15T13:07:41.058Z,97
2023-03-15T13:09:20.825Z,98
2023-03-15T13:11:00.697Z,99
2023-03-15T13:12:40.365Z,100
2023-03-15T13:14:20.146Z,98
2023-03-15T13:15:59.912Z,100
2023-03-15T13:17:39.651Z,98
2023-03-15T13:19:19.418Z,97
2023-03-15T13:20:59.173Z,100
2023-03-15T13:22:38.946Z,97
2023-03-15T13:24:18.725Z,100
2023-03-15T13:25:58.486Z,98
2023-03-15T13:27:38.238Z,98
2023-03-15T13:29:18.012Z,99
2023-03-15T13:30:57.811Z,100
2023-03-15T13:32:37.551Z,99
2023-03-15T13:34:17.308Z,100
2023-03-15T13:35:57.241Z,100
2023-03-15T13:37:36.810Z,100
2023-03-15T13:39:16.625Z,100
2023-03-15T13:40:56.375Z,97
2023-03-15T13:42:36.099Z,100
2023-03-15T13:44:15.920Z,97
2023-03-15T13:45:55.649Z,100
2023-03-15T13:47:35.393Z,100
2023-03-15T13:49:15.161Z,100
2023-03-15T13:50:54.949Z,98
2023-03-15T13:52:34.726Z,98
2023-03-15T13:54:14.453Z,100
2023-03-15T13:55:54.244Z,99
2023-03-15T13:57:33.980Z,100
2023-03-15T13:59:13.748Z,100
2023-03-15T14:00:53.522Z,98
2023-03-15T14:02:33.326Z,99
2023-03-15T14:04:13.041Z,100
2023-03-15T14:05:52.827Z,98
2023-03-15T14:07:32.585Z,100
2023-03-15T14:09:12.354Z,98
2023-03-15T14:10:52.096Z,100
2023-03-15T14:12:31.874Z,98
2023-03-15T14:14:11.627Z,100
2023-03-15T14:15:51.378Z,98
2023-03-15T14:17:31.159Z,97
2023-03-15T14:19:10.954Z,97
2023-03-15T14:20:50.690Z,98
2023-03-15T14:22:30.454Z,97
2023-03-15T14:24:10.281Z,100
2023-03-15T14:25:50.015Z,97
2023-03-15T14:27:29.844Z,98
2023-03-15T14:29:09.526Z,97
2023-03-15T14:30:49.282Z,100
2023-03-15T14:32:29.064Z,98
2023-03-15T14:34:08.784Z,100
2023-03-15T14:35:48.602Z,100
2023-03-15T14:37:28.349Z,98
2023-03-15T14:39:08.094Z,96
2023-03-15T14:40:47.916Z,100
2023-03-15T14:42:27.596Z,100
2023-03-15T14:44:07.352Z,100
2023-03-15T14:45:47.171Z,100
2023-03-15T14:47:26.938Z,97
2023-03-15T14:49:06.672Z,100
2023-03-15T14:50:46.434Z,100
2023-03-15T14:52:26.196Z,100
2023-03-15T14:54:05.961Z,99
2023-03-15T14:55:46.008Z,98
2023-03-15T14:57:25.479Z,100
2023-03-15T14:59:05.250Z,100
2023-03-15T15:00:45.053Z,98
2023-03-15T15:02:24.793Z,97
2023-03-15T15:04:04.542Z,100
2023-03-15T15:05:44.296Z,98
2023-03-15T15:07:24.075Z,100
2023-03-15T15:09:03.986Z,100
2023-03-15T15:10:43.611Z,100
2023-03-15T15:12:23.511Z,98
2023-03-15T15:14:03.115Z,97
2023-03-15T15:15:42.903Z,100
2023-03-15T15:17:22.746Z,98
2023-03-15T15:19:02.424Z,100
2023-03-15T15:20:42.177Z,98
2023-03-15T15:22:21.960Z,99
2023-03-15T15:24:01.731Z,98
2023-03-15T15:25:41.467Z,98
2023-03-15T15:27:21.245Z,99
2023-03-15T15:29:01.005Z,100
2023-03-15T15:30:40.786Z,100
2023-03-15T15:32:20.525Z,97
2023-03-15T15:34:00.290Z,99
2023-03-15T15:35:40.100Z,100
2023-03-15T15:37:19.861Z,99
2023-03-15T15:38:59.576Z,98
2023-03-15T15:40:39.343Z,97
2023-03-15T15:42:19.177Z,99
2023-03-15T15:43:58.919Z,100
2023-03-15T15:45:38.635Z,100
2023-03-15T15:47:18.439Z,98
2023-03-15T15:48:58.158Z,100
2023-03-15T15:50:38.108Z,99
2023-03-15T15:52:17.763Z,100
2023-03-15T15:53:57.483Z,100
2023-03-15T15:55:37.225Z,97
2023-03-15T15:57:16.987Z,100
2023-03-15T15:58:56.737Z,97
2023-03-15T16:00:36.505Z,100
2023-03-15T16:02:16.262Z,98
2023-03-15T16:03:56.042Z,99
2023-03-15T16:05:35.827Z,100
2023-03-15T16:07:15.567Z,100
2023-03-15T16:08:55.333Z,97
2023-03-15T16:10:35.093Z,100
2023-03-15T16:12:14.877Z,100
2023-03-15T16:13:54.649Z,100
2023-03-15T16:15:34.374Z,96
2023-03-15T16:17:14.142Z,100
2023-03-15T16:18:53.898Z,98
2023-03-15T16:20:33.683Z,85
2023-03-15T16:22:13.472Z,77
2023-03-15T16:23:53.220Z,75
2023-03-15T16:25:33.005Z,74
2023-03-15T16:27:12.785Z,74
2023-03-15T16:28:52.493Z,74
2023-03-15T16:30:32.257Z,73
2023-03-15T16:32:12.226Z,73
2023-03-15T16:33:51.787Z,73
2023-03-15T16:35:31.597Z,72
2023-03-15T16:37:11.308Z,72
2023-03-15T16:38:51.087Z,74
2023-03-15T16:40:30.850Z,86
2023-03-15T16:42:10.602Z,100
2023-03-15T16:43:50.361Z,100
2023-03-15T16:45:30.248Z,100
2023-03-15T16:47:09.897Z,100
2023-03-15T16:48:49.682Z,100
2023-03-15T16:50:29.426Z,100
2023-03-15T16:52:09.183Z,100
2023-03-15T16:53:49.142Z,100
2023-03-15T16:55:28.712Z,100
2023-03-15T16:57:08.512Z,86
2023-03-15T16:58:48.357Z,78
2023-03-15T17:00:28.005Z,75
2023-03-15T17:02:07.763Z,73
2023-03-15T17:03:47.707Z,73
2023-03-15T17:05:27.293Z,72
2023-03-15T17:07:07.048Z,72
2023-03-15T17:08:46.822Z,71
2023-03-15T17:10:26.612Z,71
2023-03-15T17:12:06.487Z,70
2023-03-15T17:13:46.112Z,69
2023-03-15T17:15:25.890Z,69
2023-03-15T17:17:05.815Z,69
2023-03-15T17:18:45.406Z,68
2023-03-15T17:20:25.163Z,68
2023-03-15T17:22:05.115Z,68
2023-03-15T17:23:44.855Z,68
2023-03-15T17:25:24.456Z,67
2023-03-15T17:27:04.270Z,67
2023-03-15T17:28:44.200Z,67
2023-03-15T17:30:23.989Z,67
2023-03-15T17:32:03.759Z,67
2023-03-15T17:33:43.300Z,67
2023-03-15T17:35:23.045Z,66
2023-03-15T17:37:02.823Z,66
2023-03-15T17:38:42.749Z,66
2023-03-15T17:40:22.400Z,66
2023-03-15T17:42:02.094Z,66
2023-03-15T17:43:41.948Z,66
2023-03-15T17:45:21.638Z,66
2023-03-15T17:47:01.472Z,66
2023-03-15T17:48:41.168Z,66
2023-03-15T17:50:20.912Z,66
2023-03-15T17:52:00.767Z,66
2023-03-15T17:53:40.553Z,66
2023-03-15T17:55:20.386Z,66
2023-03-15T17:57:00.120Z,65
2023-03-15T17:58:39.812Z,65
2023-03-15T18:00:19.507Z,65
2023-03-15T18:01:59.280Z,65
2023-03-15T18:03:39.073Z,65
2023-03-15T18:05:18.909Z,65
2023-03-15T18:06:58.579Z,65
2023-03-15T18:08:38.361Z,65
2023-03-15T18:10:18.090Z,65
2023-03-15T18:11:57.859Z,65
2023-03-15T18:13:37.609Z,65
2023-03-15T18:15:17.407Z,65
2023-03-15T18:16:57.140Z,65
2023-03-15T18:18:36.922Z,65
2023-03-15T18:20:16.669Z,65
2023-03-15T18:21:56.424Z,65
2023-03-15T18:23:36.206Z,65
2023-03-15T18:25:15.994Z,65
2023-03-15T18:26:55.749Z,65
2023-03-15T18:28:35.503Z,65
2023-03-15T18:30:15.247Z,65
2023-03-15T18:31:55.011Z,64
2023-03-15T18:33:34.778Z,65
2023-03-15T18:35:14.563Z,65
2023-03-15T18:36:54.302Z,65
2023-03-15T18:38:34.075Z,65
2023-03-15T18:40:13.857Z,64
2023-03-15T18:41:53.600Z,64
2023-03-15T18:43:33.430Z,64
2023-03-15T18:45:13.115Z,64
2023-03-15T18:46:52.907Z,65
2023-03-15T18:48:32.740Z,64
2023-03-15T18:50:12.429Z,64
2023-03-15T18:51:52.210Z,64
2023-03-15T18:53:31.991Z,64
2023-03-15T18:55:11.716Z,64
2023-03-15T18:56:51.521Z,64
2023-03-15T18:58:31.227Z,64
2023-03-15T19:00:11.028Z,64
2023-03-15T19:01:50.818Z,64
2023-03-15T19:03:30.596Z,64
2023-03-15T19:05:10.361Z,64
2023-03-15T19:06:50.058Z,64
2023-03-15T19:08:29.814Z,64
2023-03-15T19:10:09.588Z,64
2023-03-15T19:11:49.358Z,64
2023-03-15T19:13:29.210Z,64
2023-03-15T19:15:08.911Z,64
2023-03-15T19:16:48.640Z,64
2023-03-15T19:18:28.407Z,64
2023-03-15T19:20:08.156Z,64
2023-03-15T19:21:47.936Z,64
2023-03-15T19:23:27.717Z,64
2023-03-15T19:25:07.528Z,64
2023-03-15T19:26:47.303Z,64
2023-03-15T19:28:27.071Z,64
2023-03-15T19:30:06.825Z,64
2023-03-15T19:31:46.506Z,64
2023-03-15T19:33:26.270Z,64
2023-03-15T19:35:06.036Z,64
2023-03-15T19:36:45.800Z,64
2023-03-15T19:38:25.558Z,64
2023-03-15T19:40:05.364Z,64
2023-03-15T19:41:45.092Z,64
2023-03-15T19:43:24.847Z,64
2023-03-15T19:45:04.674Z,64
2023-03-15T19:46:44.378Z,63
2023-03-15T19:48:24.146Z,64
2023-03-15T19:50:03.921Z,63
2023-03-15T19:51:43.756Z,63
2023-03-15T19:53:23.546Z,63
2023-03-15T19:55:03.220Z,63
2023-03-15T19:56:42.985Z,63
2023-03-15T19:58:22.858Z,63
2023-03-15T20:00:02.497Z,63
2023-03-15T20:01:42.250Z,63
2023-03-15T20:03:22.101Z,63
2023-03-15T20:05:01.799Z,63
2023-03-15T20:06:41.558Z,63
2023-03-15T20:08:21.328Z,63
2023-03-15T20:10:01.079Z,63
2023-03-15T20:11:40.858Z,63
2023-03-15T20:13:20.721Z,63
2023-03-15T20:15:00.349Z,63
2023-03-15T20:16:40.132Z,63
2023-03-15T20:18:19.903Z,64
2023-03-15T20:19:59.651Z,64
2023-03-15T20:21:39.483Z,63
2023-03-15T20:23:19.204Z,64
2023-03-15T20:24:58.983Z,64
2023-03-15T20:26:38.701Z,63
2023-03-15T20:28:18.543Z,63
2023-03-15T20:29:58.258Z,63
2023-03-15T20:31:38.008Z,63
2023-03-15T20:33:17.780Z,63
2023-03-15T20:34:57.630Z,63
2023-03-15T20:36:37.338Z,63
2023-03-15T20:38:17.087Z,63
2023-03-15T20:39:56.837Z,63
2023-03-15T20:41:36.594Z,63
2023-03-15T20:43:16.426Z,63
2023-03-15T20:44:56.327Z,63
2023-03-15T20:46:35.896Z,63
2023-03-15T20:48:15.660Z,63
2023-03-15T20:49:55.400Z,63
2023-03-15T20:51:35.186Z,63
2023-03-15T20:53:14.936Z,63
2023-03-15T20:54:54.711Z,63
2023-03-15T20:56:34.518Z,63
2023-03-15T20:58:14.295Z,62
2023-03-15T20:59:53.988Z,63
2023-03-15T21:01:33.803Z,63
2023-03-15T21:03:13.514Z,63
2023-03-15T21:04:53.321Z,63
2023-03-15T21:06:33.068Z,63
2023-03-15T21:08:12.821Z,63
2023-03-15T21:09:52.623Z,63
2023-03-15T21:11:32.549Z,63
2023-03-15T21:13:12.110Z,63
2023-03-15T21:14:51.933Z,63
2023-03-15T21:16:31.677Z,62
2023-03-15T21:18:11.408Z,63
2023-03-15T21:19:51.159Z,63
2023-03-15T21:21:30.897Z,63
2023-03-15T21:23:10.696Z,63
2023-03-15T21:24:50.434Z,63
2023-03-15T21:26:30.196Z,63
2023-03-15T21:28:09.968Z,63
2023-03-15T21:29:49.728Z,62
2023-03-15T21:31:29.501Z,63
2023-03-15T21:33:09.248Z,63
2023-03-15T21:34:49.018Z,62
2023-03-15T21:36:28.773Z,63
2023-03-15T21:38:08.555Z,62
2023-03-15T21:39:48.328Z,63
2023-03-15T21:41:28.118Z,62
2023-03-15T21:43:07.876Z,62
2023-03-15T21:44:47.585Z,62
2023-03-15T21:46:27.355Z,62
2023-03-15T21:48:07.117Z,62
2023-03-15T21:49:46.886Z,62
2023-03-15T21:51:26.652Z,62
2023-03-15T21:53:06.415Z,62
2023-03-15T21:54:46.253Z,62
2023-03-15T21:56:25.962Z,62
2023-03-15T21:58:05.727Z,62
2023-03-15T21:59:45.481Z,62
2023-03-15T22:01:25.263Z,62
2023-03-15T22:03:05.007Z,62
2023-03-15T22:04:44.766Z,62
2023-03-15T22:06:24.536Z,62
2023-03-15T22:08:04.320Z,62
2023-03-15T22:09:44.065Z,62
2023-03-15T22:11:23.845Z,62
2023-03-15T22:13:03.590Z,62
2023-03-15T22:14:43.384Z,62
2023-03-15T22:16:23.101Z,62
2023-03-15T22:18:02.931Z,62
2023-03-15T22:19:42.644Z,62
2023-03-15T22:21:22.433Z,62
2023-03-15T22:23:02.236Z,62
2023-03-15T22:24:42.031Z,62
2023-03-15T22:26:21.711Z,62
2023-03-15T22:28:01.510Z,62
2023-03-15T22:29:41.224Z,62
2023-03-15T22:31:20.999Z,62
2023-03-15T22:33:00.764Z,62
2023-03-15T22:34:40.523Z,62
2023-03-15T22:36:20.350Z,62
2023-03-15T22:38:00.049Z,62
2023-03-15T22:39:39.830Z,61
2023-03-15T22:41:19.577Z,62
2023-03-15T22:42:59.333Z,62
2023-03-15T22:44:39.098Z,62
2023-03-15T22:46:18.874Z,62
2023-03-15T22:47:58.693Z,62
2023-03-15T22:49:38.390Z,62
2023-03-15T22:51:18.249Z,62
2023-03-15T22:52:58.038Z,62
2023-03-15T22:54:37.757Z,62
2023-03-15T22:56:17.488Z,61
2023-03-15T22:57:57.219Z,62
2023-03-15T22:59:36.981Z,62
2023-03-15T23:01:16.747Z,62
2023-03-15T23:02:56.508Z,62
2023-03-15T23:04:36.264Z,62
2023-03-15T23:06:16.035Z,62
2023-03-15T23:07:55.893Z,62
2023-03-15T23:09:35.616Z,62
2023-03-15T23:11:15.319Z,61
2023-03-15T23:12:55.155Z,62
2023-03-15T23:14:34.875Z,62
2023-03-15T23:16:14.622Z,62
2023-03-15T23:17:54.381Z,61
2023-03-15T23:19:34.154Z,61
2023-03-15T23:21:13.920Z,61
2023-03-15T23:22:53.680Z,61
2023-03-15T23:24:33.468Z,61
2023-03-15T23:26:13.218Z,61
2023-03-15T23:27:53.008Z,61
2023-03-15T23:29:32.731Z,61
2023-03-15T23:31:12.521Z,61
2023-03-15T23:32:52.262Z,61